Byron Center, Michigan
Current Conditions -  °F | °C
As of 4:53 PM on Thursday 23 Oct 2014 (Local Time) from KGRR Reporting Station
Broken Clouds Broken Clouds  
Wind Chill: 58°   Ceiling: 24000
Heat Index: 58°   Visibility: 10mi
Dew Point: 40°   Wind: 6mph
Humidity: 51%   Direction: 120°ESE
Pressure: 30.11"   Gusts: NA
Location:  42.81°N, 85.72°W
Report Text: KGRR 232053Z 12005KT 10SM BKN240 14/04 A3011 RMK AO2 SLP201 T01440044 58025
Loading
Personal Weather Stations






























Interactive Weather Map
Tropical Storm Tracking
New forecast layout! Learn more

10-Day Weather Forecast

Advertisements
Track Severe Weather on mobile